createdAt,value
2023-01-02T00:00:45.850Z,22.43
2023-01-02T00:03:14.934Z,22.57
2023-01-02T00:05:42.537Z,20.97
2023-01-02T00:08:10.071Z,24.30
2023-01-02T00:10:37.684Z,22.63
2023-01-02T00:13:05.279Z,23.90
2023-01-02T00:15:33.203Z,29.87
2023-01-02T00:18:00.684Z,34.07
2023-01-02T00:20:29.547Z,38.03
2023-01-02T00:22:57.054Z,29.47
2023-01-02T00:25:24.600Z,24.90
2023-01-02T00:27:52.107Z,23.37
2023-01-02T00:30:19.749Z,25.20
2023-01-02T00:32:47.244Z,27.83
2023-01-02T00:35:14.963Z,24.27
2023-01-02T00:37:43.807Z,23.93
2023-01-02T00:40:13.730Z,23.90
2023-01-02T00:42:41.484Z,23.90
2023-01-02T00:45:10.956Z,23.67
2023-01-02T00:47:38.508Z,24.33
2023-01-02T00:50:07.320Z,24.67
2023-01-02T00:52:34.883Z,24.73
2023-01-02T00:55:03.886Z,28.43
2023-01-02T00:57:31.657Z,29.07
2023-01-02T00:59:59.149Z,29.77
2023-01-02T01:02:26.775Z,27.87
2023-01-02T01:04:54.523Z,28.60
2023-01-02T01:07:22.044Z,30.30
2023-01-02T01:09:49.555Z,31.10
2023-01-02T01:12:18.414Z,28.57
2023-01-02T01:14:45.938Z,27.30
2023-01-02T01:17:13.457Z,27.47
2023-01-02T01:19:40.972Z,25.53
2023-01-02T01:22:08.518Z,31.80
2023-01-02T01:24:36.066Z,26.23
2023-01-02T01:27:03.573Z,26.40
2023-01-02T01:29:32.430Z,25.77
2023-01-02T01:31:59.998Z,25.50
2023-01-02T01:34:27.632Z,27.80
2023-01-02T01:36:55.138Z,26.53
2023-01-02T01:39:22.715Z,33.90
2023-01-02T01:41:50.218Z,27.10
2023-01-02T01:44:43.786Z,24.97
2023-01-02T01:47:19.675Z,25.10
2023-01-02T01:49:47.924Z,28.43
2023-01-02T01:52:18.650Z,30.40
2023-01-02T01:54:52.061Z,28.73
2023-01-02T01:57:24.426Z,32.17
2023-01-02T01:59:53.875Z,29.17
2023-01-02T02:02:24.036Z,31.17
2023-01-02T02:04:52.327Z,29.73
2023-01-02T02:07:20.171Z,30.43
2023-01-02T02:09:52.603Z,32.33
2023-01-02T02:12:25.970Z,30.27
2023-01-02T02:14:56.800Z,34.17
2023-01-02T02:17:34.594Z,28.43
2023-01-02T02:20:31.866Z,32.83
2023-01-02T02:23:41.064Z,30.30
2023-01-02T02:26:51.986Z,30.53
2023-01-02T02:29:52.498Z,30.50
2023-01-02T02:32:26.858Z,32.73
2023-01-02T02:35:01.178Z,32.10
2023-01-02T02:37:38.218Z,32.33
2023-01-02T02:40:18.015Z,33.00
2023-01-02T02:42:56.764Z,37.93
2023-01-02T02:45:37.746Z,36.67
2023-01-02T02:48:13.519Z,37.70
2023-01-02T02:50:47.208Z,35.33
2023-01-02T02:53:21.370Z,34.00
2023-01-02T02:55:51.839Z,38.13
2023-01-02T02:58:21.751Z,33.63
2023-01-02T03:00:50.741Z,38.93
2023-01-02T03:03:19.782Z,37.43
2023-01-02T03:06:04.516Z,31.57
2023-01-02T03:08:40.492Z,36.43
2023-01-02T03:11:08.288Z,35.23
2023-01-02T03:13:42.549Z,36.33
2023-01-02T03:16:14.142Z,36.60
2023-01-02T03:18:52.734Z,35.23
2023-01-02T03:21:30.943Z,40.30
2023-01-02T03:24:01.940Z,35.67
2023-01-02T03:26:32.452Z,41.47
2023-01-02T03:29:05.237Z,40.23
2023-01-02T03:31:39.987Z,42.03
2023-01-02T03:34:11.306Z,40.13
2023-01-02T03:36:42.273Z,42.90
2023-01-02T03:39:14.160Z,35.17
2023-01-02T03:41:45.745Z,35.80
2023-01-02T03:44:15.463Z,34.90
2023-01-02T03:46:48.933Z,36.63
2023-01-02T03:49:23.175Z,41.37
2023-01-02T03:51:50.822Z,36.67
2023-01-02T03:54:19.672Z,44.27
2023-01-02T03:56:57.510Z,45.77
2023-01-02T03:59:30.673Z,44.13
2023-01-02T04:02:05.275Z,44.93
2023-01-02T04:04:43.062Z,47.33
2023-01-02T04:07:19.696Z,43.20
2023-01-02T04:09:50.467Z,47.30
2023-01-02T04:12:21.747Z,43.67
2023-01-02T04:14:53.126Z,45.23
2023-01-02T04:17:25.375Z,44.20
2023-01-02T04:19:56.435Z,46.90
2023-01-02T04:22:29.470Z,48.67
2023-01-02T04:25:02.528Z,48.63
2023-01-02T04:27:34.696Z,49.83
2023-01-02T04:30:02.837Z,49.50
2023-01-02T04:32:36.405Z,51.73
2023-01-02T04:35:09.052Z,45.57
2023-01-02T04:37:39.203Z,49.77
2023-01-02T04:40:12.062Z,51.90
2023-01-02T04:42:39.578Z,49.47
2023-01-02T04:45:08.081Z,56.23
2023-01-02T04:47:36.932Z,46.57
2023-01-02T04:50:04.620Z,55.53
2023-01-02T04:52:37.001Z,50.23
2023-01-02T04:55:05.336Z,51.07
2023-01-02T04:57:32.926Z,45.63
2023-01-02T05:00:00.489Z,53.77
2023-01-02T05:02:28.836Z,54.57
2023-01-02T05:04:57.737Z,56.57
2023-01-02T05:07:25.253Z,55.67
2023-01-02T05:09:52.716Z,52.00
2023-01-02T05:12:20.191Z,58.23
2023-01-02T05:14:47.682Z,55.97
2023-01-02T05:17:15.177Z,60.73
2023-01-02T05:19:42.746Z,60.87
2023-01-02T05:22:31.337Z,66.97
2023-01-02T05:24:58.902Z,71.80
2023-01-02T05:27:26.433Z,68.87
2023-01-02T05:29:53.938Z,66.03
2023-01-02T05:32:21.425Z,64.73
2023-01-02T05:34:48.914Z,65.53
2023-01-02T05:37:17.748Z,56.77
2023-01-02T05:39:45.254Z,53.87
2023-01-02T05:42:12.780Z,58.73
2023-01-02T05:44:40.273Z,65.13
2023-01-02T05:47:10.852Z,68.70
2023-01-02T05:49:40.930Z,72.10
2023-01-02T05:52:08.439Z,71.27
2023-01-02T05:54:37.251Z,66.73
2023-01-02T05:57:04.940Z,71.47
2023-01-02T05:59:35.942Z,75.40
2023-01-02T06:02:04.006Z,78.40
2023-01-02T06:04:31.799Z,65.17
2023-01-02T06:06:59.323Z,57.07
2023-01-02T06:09:26.815Z,51.53
2023-01-02T06:11:55.723Z,43.03
2023-01-02T06:14:24.048Z,45.97
2023-01-02T06:16:51.598Z,47.30
2023-01-02T06:19:19.081Z,60.37
2023-01-02T06:21:46.582Z,67.33
2023-01-02T06:24:14.044Z,72.63
2023-01-02T06:26:41.525Z,69.23
2023-01-02T06:29:11.011Z,77.27
2023-01-02T06:31:40.037Z,73.83
2023-01-02T06:34:08.155Z,69.37
2023-01-02T06:36:35.742Z,66.03
2023-01-02T06:39:03.574Z,64.70
2023-01-02T06:41:31.564Z,72.70
2023-01-02T06:43:59.060Z,67.93
2023-01-02T06:46:27.904Z,70.57
2023-01-02T06:48:55.403Z,72.57
2023-01-02T06:51:24.242Z,75.67
2023-01-02T06:53:52.069Z,71.20
2023-01-02T06:56:21.144Z,70.73
2023-01-02T06:58:49.276Z,70.37
2023-01-02T07:01:18.959Z,76.57
2023-01-02T07:03:47.938Z,80.23
2023-01-02T07:06:17.421Z,77.63
2023-01-02T07:08:45.268Z,86.57
2023-01-02T07:11:15.374Z,79.03
2023-01-02T07:13:44.150Z,82.57
2023-01-02T07:16:13.505Z,73.33
2023-01-02T07:18:41.198Z,73.73
2023-01-02T07:21:11.837Z,67.40
2023-01-02T07:23:39.738Z,72.33
2023-01-02T07:26:08.137Z,75.80
2023-01-02T07:28:36.594Z,66.33
2023-01-02T07:31:08.042Z,69.60
2023-01-02T07:33:36.286Z,60.33
2023-01-02T07:36:06.291Z,63.53
2023-01-02T07:38:35.966Z,68.23
2023-01-02T07:41:03.446Z,69.87
2023-01-02T07:43:31.104Z,65.50
2023-01-02T07:46:03.766Z,75.77
2023-01-02T07:48:31.481Z,69.73
2023-01-02T07:51:01.612Z,68.30
2023-01-02T07:53:29.227Z,62.00
2023-01-02T07:55:59.856Z,63.17
2023-01-02T07:58:27.965Z,61.60
2023-01-02T08:00:59.884Z,60.40
2023-01-02T08:03:32.064Z,70.60
2023-01-02T08:06:03.987Z,62.00
2023-01-02T08:08:31.459Z,62.63
2023-01-02T08:11:00.298Z,81.07
2023-01-02T08:13:27.767Z,74.37
2023-01-02T08:15:55.255Z,65.50
2023-01-02T08:18:22.735Z,58.13
2023-01-02T08:20:50.221Z,61.13
2023-01-02T08:23:17.703Z,58.23
2023-01-02T08:25:45.168Z,62.20
2023-01-02T08:28:13.995Z,61.70
2023-01-02T08:30:41.603Z,54.87
2023-01-02T08:33:09.143Z,41.27
2023-01-02T08:35:38.951Z,36.17
2023-01-02T08:38:06.821Z,39.97
2023-01-02T08:40:34.377Z,41.90
2023-01-02T08:43:01.870Z,38.07
2023-01-02T08:45:31.043Z,38.13
2023-01-02T08:47:58.538Z,38.73
2023-01-02T08:50:26.222Z,39.40
2023-01-02T08:52:53.770Z,40.30
2023-01-02T08:55:21.258Z,33.30
2023-01-02T08:57:48.721Z,54.75
2023-01-02T09:00:16.863Z,80.93
2023-01-02T09:02:45.759Z,28.58
2023-01-02T09:05:13.355Z,27.10
2023-01-02T09:07:40.851Z,15.30
2023-01-02T09:10:09.338Z,14.05
2023-01-02T09:12:36.875Z,15.77
2023-01-02T09:15:04.972Z,19.13
2023-01-02T09:17:32.447Z,22.15
2023-01-02T09:20:01.255Z,16.83
2023-01-02T09:22:28.719Z,26.02
2023-01-02T09:24:56.219Z,36.92
2023-01-02T09:27:23.805Z,38.92
2023-01-02T09:29:53.109Z,33.03
2023-01-02T09:32:20.978Z,42.13
2023-01-02T09:34:50.814Z,42.67
2023-01-02T09:37:19.633Z,35.40
2023-01-02T09:39:47.402Z,41.03
2023-01-02T09:42:18.025Z,22.48
2023-01-02T09:44:49.211Z,24.65
2023-01-02T09:47:21.001Z,40.30
2023-01-02T09:49:50.668Z,45.70
2023-01-02T09:52:24.043Z,41.30
2023-01-02T09:54:51.648Z,43.33
2023-01-02T09:57:40.776Z,40.95
2023-01-02T10:00:15.799Z,37.42
2023-01-02T10:03:07.950Z,14.85
2023-01-02T10:05:57.638Z,12.80
2023-01-02T10:08:33.588Z,11.48
2023-01-02T10:11:11.388Z,13.68
2023-01-02T10:16:36.759Z,17.38
2023-01-02T10:19:08.287Z,16.20
2023-01-02T10:21:38.501Z,15.35
2023-01-02T10:24:12.761Z,10.48
2023-01-02T10:26:46.616Z,13.98
2023-01-02T10:29:21.117Z,24.65
2023-01-02T10:31:53.978Z,26.60
2023-01-02T10:34:24.356Z,24.77
2023-01-02T10:36:52.765Z,27.83
2023-01-02T10:39:23.522Z,28.15
2023-01-02T10:41:54.999Z,24.92
2023-01-02T10:44:27.928Z,25.13
2023-01-02T10:46:56.524Z,29.63
2023-01-02T10:49:26.747Z,28.92
2023-01-02T10:52:04.028Z,26.33
2023-01-02T10:54:55.040Z,23.08
2023-01-02T10:57:34.888Z,21.48
2023-01-02T11:00:04.246Z,20.67
2023-01-02T11:02:37.878Z,21.67
2023-01-02T11:05:07.313Z,22.55
2023-01-02T11:07:38.917Z,21.85
2023-01-02T11:10:23.215Z,19.50
2023-01-02T11:12:50.734Z,21.35
2023-01-02T11:15:26.153Z,18.67
2023-01-02T11:17:54.315Z,18.48
2023-01-02T11:20:28.736Z,19.95
2023-01-02T11:22:58.917Z,19.30
2023-01-02T11:25:29.962Z,19.85
2023-01-02T11:27:59.303Z,25.08
2023-01-02T11:30:33.330Z,25.52
2023-01-02T11:33:08.179Z,28.13
2023-01-02T11:35:39.662Z,30.15
2023-01-02T11:38:15.399Z,27.17
2023-01-02T11:40:55.610Z,29.27
2023-01-02T11:43:45.711Z,28.83
2023-01-02T11:46:23.505Z,27.77
2023-01-02T11:48:53.792Z,29.17
2023-01-02T11:51:22.631Z,25.40
2023-01-02T11:53:53.599Z,24.10
2023-01-02T11:56:27.984Z,15.52
2023-01-02T11:59:02.120Z,17.95
2023-01-02T12:01:38.117Z,13.15
2023-01-02T12:04:06.188Z,11.75
2023-01-02T12:06:47.243Z,13.45
2023-01-02T12:09:20.890Z,17.10
2023-01-02T12:12:09.404Z,16.88
2023-01-02T12:14:55.012Z,19.15
2023-01-02T12:17:31.085Z,18.23
2023-01-02T12:20:18.061Z,15.68
2023-01-02T12:23:14.822Z,16.30
2023-01-02T12:25:52.432Z,15.07
2023-01-02T12:28:45.080Z,12.20
2023-01-02T12:31:24.553Z,13.15
2023-01-02T12:34:00.706Z,9.90
2023-01-02T12:36:44.950Z,14.38
2023-01-02T12:39:50.116Z,11.23
2023-01-02T12:42:31.055Z,11.57
2023-01-02T12:45:00.307Z,13.35
2023-01-02T12:47:56.589Z,13.93
2023-01-02T12:50:49.176Z,16.40
2023-01-02T12:53:35.563Z,18.42
2023-01-02T12:56:11.496Z,14.55
2023-01-02T12:58:51.755Z,19.08
2023-01-02T13:01:26.796Z,18.88
2023-01-02T13:04:03.393Z,18.42
2023-01-02T13:06:45.769Z,20.60
2023-01-02T13:09:23.140Z,20.73
2023-01-02T13:11:57.553Z,18.55
2023-01-02T13:14:32.704Z,14.77
2023-01-02T13:17:13.685Z,14.02
2023-01-02T13:19:46.646Z,13.13
2023-01-02T13:22:27.886Z,15.43
2023-01-02T13:24:57.430Z,13.45
2023-01-02T13:27:25.492Z,14.65
2023-01-02T13:29:54.184Z,17.60
2023-01-02T13:32:29.669Z,17.95
2023-01-02T13:35:01.840Z,17.85
2023-01-02T13:37:30.724Z,17.08
2023-01-02T13:40:00.768Z,15.77
2023-01-02T13:42:49.579Z,21.95
2023-01-02T13:45:21.595Z,20.17
2023-01-02T13:47:55.540Z,18.33
2023-01-02T13:50:28.244Z,17.95
2023-01-02T13:53:27.873Z,25.98
2023-01-02T13:56:05.640Z,13.48
2023-01-02T13:58:48.168Z,16.83
2023-01-02T14:01:34.541Z,23.58
2023-01-02T14:04:29.485Z,27.42
2023-01-02T14:07:27.195Z,30.63
2023-01-02T14:10:08.116Z,24.42
2023-01-02T14:12:43.796Z,19.13
2023-01-02T14:15:18.929Z,15.50
2023-01-02T14:17:54.858Z,14.82
2023-01-02T14:20:27.251Z,15.93
2023-01-02T14:22:57.380Z,16.08
2023-01-02T14:25:26.035Z,18.15
2023-01-02T14:27:56.671Z,16.60
2023-01-02T14:30:31.251Z,18.73
2023-01-02T14:33:00.385Z,19.02
2023-01-02T14:35:33.209Z,27.70
2023-01-02T14:38:11.257Z,32.20
2023-01-02T14:40:40.689Z,32.50
2023-01-02T14:43:30.714Z,25.70
2023-01-02T14:46:02.762Z,17.70
2023-01-02T14:48:36.284Z,19.10
2023-01-02T14:51:09.993Z,18.33
2023-01-02T14:53:42.394Z,16.30
2023-01-02T14:56:15.682Z,14.17
2023-01-02T14:58:44.667Z,15.45
2023-01-02T15:01:16.419Z,14.80
2023-01-02T15:04:14.604Z,16.70
2023-01-02T15:06:46.458Z,18.13
2023-01-02T15:09:30.520Z,14.63
2023-01-02T15:12:16.781Z,14.87
2023-01-02T15:14:44.508Z,16.27
2023-01-02T15:17:14.639Z,16.17
2023-01-02T15:19:43.880Z,14.95
2023-01-02T15:22:14.673Z,14.33
2023-01-02T15:24:48.866Z,13.90
2023-01-02T15:27:23.909Z,19.23
2023-01-02T15:29:53.657Z,21.60
2023-01-02T15:32:23.526Z,22.20
2023-01-02T15:34:51.622Z,21.05
2023-01-02T15:37:23.536Z,20.73
2023-01-02T15:39:53.250Z,16.85
2023-01-02T15:42:56.325Z,21.27
2023-01-02T15:45:23.826Z,18.63
2023-01-02T15:47:52.685Z,19.70
2023-01-02T15:50:23.279Z,19.07
2023-01-02T15:52:58.093Z,21.93
2023-01-02T15:55:26.345Z,23.77
2023-01-02T15:57:55.432Z,21.03
2023-01-02T16:00:35.964Z,24.50
2023-01-02T16:03:04.325Z,19.27
2023-01-02T16:05:46.169Z,20.20
2023-01-02T16:08:20.714Z,23.27
2023-01-02T16:10:51.305Z,23.40
2023-01-02T16:13:40.471Z,20.67
2023-01-02T16:16:15.890Z,20.30
2023-01-02T16:18:47.688Z,18.17
2023-01-02T16:21:16.892Z,18.67
2023-01-02T16:23:51.153Z,15.40
2023-01-02T16:26:20.805Z,16.73
2023-01-02T16:28:51.237Z,16.70
2023-01-02T16:31:20.904Z,19.30
2023-01-02T16:33:48.508Z,18.57
2023-01-02T16:36:22.473Z,13.50
2023-01-02T16:38:55.690Z,15.57
2023-01-02T16:42:15.551Z,16.10
2023-01-02T16:44:43.074Z,18.73
2023-01-02T16:47:11.257Z,20.23
2023-01-02T16:49:39.174Z,18.87
2023-01-02T16:52:06.767Z,30.57
2023-01-02T16:54:35.587Z,20.77
2023-01-02T16:57:06.434Z,31.50
2023-01-02T16:59:35.909Z,84.93
2023-01-02T17:02:03.569Z,23.40
2023-01-02T17:04:31.506Z,22.30
2023-01-02T17:06:59.001Z,20.03
2023-01-02T17:09:26.474Z,22.03
2023-01-02T17:12:01.095Z,19.33
2023-01-02T17:14:29.071Z,19.00
2023-01-02T17:16:56.775Z,23.37
2023-01-02T17:19:24.692Z,22.63
2023-01-02T17:21:52.570Z,22.67
2023-01-02T17:24:20.137Z,29.50
2023-01-02T17:26:48.049Z,19.70
2023-01-02T17:29:16.923Z,20.33
2023-01-02T17:31:44.484Z,22.30
2023-01-02T17:34:11.971Z,21.97
2023-01-02T17:36:39.452Z,23.93
2023-01-02T17:39:07.009Z,18.03
2023-01-02T17:41:34.497Z,19.40
2023-01-02T17:44:03.748Z,19.60
2023-01-02T17:49:21.923Z,20.40
2023-01-02T17:51:49.508Z,20.33
2023-01-02T17:54:17.330Z,20.43
2023-01-02T17:56:45.178Z,18.80
2023-01-02T17:59:13.923Z,18.90
2023-01-02T18:01:42.852Z,19.60
2023-01-02T18:04:10.473Z,20.33
2023-01-02T18:06:38.023Z,20.30
2023-01-02T18:09:05.926Z,19.77
2023-01-02T18:11:34.569Z,18.97
2023-01-02T18:14:04.195Z,21.13
2023-01-02T18:16:35.390Z,33.60
2023-01-02T18:19:07.651Z,115.30
2023-01-02T18:21:35.551Z,21.33
2023-01-02T18:24:08.723Z,23.40
2023-01-02T18:26:36.216Z,67.93
2023-01-02T18:29:09.676Z,117.63
2023-01-02T18:31:40.670Z,73.17
2023-01-02T18:34:46.359Z,47.37
2023-01-02T18:37:15.745Z,58.20
2023-01-02T18:39:43.896Z,39.63
2023-01-02T18:42:13.639Z,23.27
2023-01-02T18:44:42.694Z,23.47
2023-01-02T18:47:24.869Z,32.67
2023-01-02T18:49:54.955Z,58.70
2023-01-02T18:52:28.263Z,37.80
2023-01-02T18:55:00.348Z,64.10
2023-01-02T18:57:32.697Z,96.10
2023-01-02T19:00:14.047Z,29.30
2023-01-02T19:02:53.215Z,25.63
2023-01-02T19:05:25.455Z,118.30
2023-01-02T19:07:55.139Z,90.83
2023-01-02T19:10:36.918Z,21.80
2023-01-02T19:13:07.937Z,17.63
2023-01-02T19:15:42.038Z,18.60
2023-01-02T19:18:21.606Z,22.47
2023-01-02T19:20:55.134Z,13.97
2023-01-02T19:23:28.210Z,18.63
2023-01-02T19:25:56.830Z,18.60
2023-01-02T19:28:28.296Z,14.67
2023-01-02T19:30:56.604Z,13.87
2023-01-02T19:33:39.117Z,13.87
2023-01-02T19:36:16.668Z,11.43
2023-01-02T19:38:45.730Z,15.30
2023-01-02T19:41:13.451Z,13.77
2023-01-02T19:43:40.921Z,12.23
2023-01-02T19:46:08.650Z,12.27
2023-01-02T19:48:36.173Z,17.37
2023-01-02T19:51:03.654Z,16.17
2023-01-02T19:53:32.502Z,19.40
2023-01-02T19:56:00.006Z,19.07
2023-01-02T19:58:27.500Z,13.67
2023-01-02T20:00:54.999Z,12.77
2023-01-02T20:03:22.595Z,14.17
2023-01-02T20:05:50.226Z,23.20
2023-01-02T20:08:17.723Z,25.20
2023-01-02T20:10:46.564Z,18.87
2023-01-02T20:13:14.041Z,17.67
2023-01-02T20:15:41.537Z,22.87
2023-01-02T20:18:09.298Z,21.20
2023-01-02T20:20:36.889Z,18.40
2023-01-02T20:23:04.420Z,18.37
2023-01-02T20:25:32.041Z,16.80
2023-01-02T20:28:03.194Z,12.83
2023-01-02T20:30:30.739Z,15.50
2023-01-02T20:32:58.215Z,14.30
2023-01-02T20:35:25.716Z,16.73
2023-01-02T20:37:53.227Z,16.20
2023-01-02T20:40:20.753Z,18.57
2023-01-02T20:42:48.321Z,16.83
2023-01-02T20:45:17.157Z,12.13
2023-01-02T20:47:44.670Z,13.27
2023-01-02T20:50:12.269Z,11.87
2023-01-02T20:52:39.770Z,14.00
2023-01-02T20:55:08.133Z,13.83
2023-01-02T20:57:35.721Z,13.67
2023-01-02T21:00:04.909Z,14.97
2023-01-02T21:02:33.872Z,12.80
2023-01-02T21:05:01.691Z,10.50
2023-01-02T21:07:29.202Z,10.60
2023-01-02T21:09:58.969Z,13.90
2023-01-02T21:12:44.223Z,11.90
2023-01-02T21:15:31.838Z,14.40
2023-01-02T21:18:00.773Z,19.67
2023-01-02T21:20:28.311Z,20.13
2023-01-02T21:22:56.522Z,29.10
2023-01-02T21:25:24.116Z,13.70
2023-01-02T21:27:51.641Z,9.13
2023-01-02T21:30:19.235Z,8.13
2023-01-02T21:32:46.776Z,11.13
2023-01-02T21:35:15.621Z,10.07
2023-01-02T21:37:43.144Z,11.95
2023-01-02T21:40:11.284Z,21.02
2023-01-02T21:42:44.494Z,9.80
2023-01-02T21:45:12.494Z,9.43
2023-01-02T21:47:39.978Z,5.43
2023-01-02T21:50:07.962Z,6.45
2023-01-02T21:52:36.978Z,5.90
2023-01-02T21:55:04.913Z,7.63
2023-01-02T21:58:11.062Z,5.88
2023-01-02T22:00:22.552Z,8.40
2023-01-02T22:02:50.269Z,9.25
2023-01-02T22:05:19.094Z,6.25
2023-01-02T22:07:48.131Z,5.22
2023-01-02T22:10:17.050Z,5.32
2023-01-02T22:12:44.665Z,4.00
2023-01-02T22:15:13.335Z,4.47
2023-01-02T22:17:41.403Z,3.10
2023-01-02T22:20:10.228Z,4.15
2023-01-02T22:22:37.872Z,4.80
2023-01-02T22:25:08.047Z,5.53
2023-01-02T22:27:35.598Z,5.82
2023-01-02T22:30:23.342Z,5.07
2023-01-02T22:32:51.584Z,6.68
2023-01-02T22:35:19.370Z,5.97
2023-01-02T22:37:46.858Z,6.65
2023-01-02T22:40:16.074Z,5.88
2023-01-02T22:43:04.815Z,6.13
2023-01-02T22:45:36.933Z,5.55
2023-01-02T22:48:08.470Z,5.90
2023-01-02T22:50:44.418Z,5.85
2023-01-02T22:53:19.328Z,5.10
2023-01-02T22:55:48.465Z,6.18
2023-01-02T22:58:16.043Z,5.75
2023-01-02T23:00:43.657Z,5.70
2023-01-02T23:03:13.455Z,6.03
2023-01-02T23:05:41.285Z,5.28
2023-01-02T23:08:09.186Z,5.15
2023-01-02T23:10:36.681Z,5.18
2023-01-02T23:13:05.725Z,6.43
2023-01-02T23:15:33.233Z,6.07
2023-01-02T23:18:18.643Z,5.85
2023-01-02T23:20:46.125Z,6.18
2023-01-02T23:23:13.651Z,6.65
2023-01-02T23:25:43.975Z,5.50
2023-01-02T23:28:31.888Z,6.15
2023-01-02T23:31:00.257Z,6.05
2023-01-02T23:33:27.910Z,5.72
2023-01-02T23:35:55.395Z,5.88
2023-01-02T23:38:22.972Z,4.50
2023-01-02T23:40:50.572Z,4.82
2023-01-02T23:43:19.423Z,5.55
2023-01-02T23:45:46.966Z,5.65
2023-01-02T23:48:14.511Z,6.00
2023-01-02T23:50:46.046Z,5.10
2023-01-02T23:53:13.924Z,5.72
2023-01-02T23:55:41.664Z,5.95
2023-01-02T23:58:09.965Z,5.45
